This is the latest recevied weather packets stored in our database for station/object WX7FGZ-5. If no packets are shown the sender has not sent any weather packets the latest 10 day(s).
| Time | Temp. | Humidity | Pressure | Rain* | Wind** | Luminosity | Snow |
|---|---|---|---|---|---|---|---|
| 1777841934 | 18.89° C | 29% | 1021.3 hPa | 0 mm | - | 1060 W/m² | - |
| 1777841644 | 18.33° C | 32% | 1021.4 hPa | 0 mm | - | 1178 W/m² | - |
| 1777840132 | 17.78° C | 33% | 1021.8 hPa | 0 mm | - | 223 W/m² | - |
| 1777836531 | 19.44° C | 29% | 1022.7 hPa | 0 mm | - | 1121 W/m² | - |
| 1777836232 | 18.89° C | 30% | 1022.6 hPa | 0 mm | - | 311 W/m² | - |
| 1777836158 | 18.89° C | 32% | 1022.8 hPa | 0 mm | - | 1190 W/m² | - |
| 1777835932 | 18.89° C | 32% | 1022.8 hPa | 0 mm | - | 1190 W/m² | - |
| 1777835623 | 18.33° C | 31% | 1023.1 hPa | 0 mm | - | 1299 W/m² | - |
| 1777835331 | 18.33° C | 31% | 1023.1 hPa | 0 mm | - | 1299 W/m² | - |
| 1777834961 | 17.78° C | 35% | 1023.3 hPa | 0 mm | - | 388 W/m² | - |
| 1777834731 | 17.78° C | 35% | 1023.3 hPa | 0 mm | - | 388 W/m² | - |
| 1777834432 | 18.33° C | 31% | 1023.2 hPa | 0 mm | - | 1292 W/m² | - |
| 1777833833 | 17.22° C | 35% | 1023.4 hPa | 0 mm | - | 279 W/m² | - |
| 1777831150 | 18.33° C | 35% | 1023.7 hPa | 0 mm | - | 1234 W/m² | - |
| 1777830851 | 17.78° C | 36% | 1023.9 hPa | 0 mm | - | 1148 W/m² | - |
| 1777830551 | 17.78° C | 36% | 1024.1 hPa | 0 mm | - | 1194 W/m² | - |
| 1777830251 | 17.78° C | 35% | 1024.1 hPa | 0 mm | - | 1123 W/m² | - |
| 1777829923 | 17.78° C | 32% | 1024.3 hPa | 0 mm | - | 200 W/m² | - |
| 1777829651 | 17.78° C | 32% | 1024.3 hPa | 0 mm | - | 200 W/m² | - |
| 1777829622 | 17.78° C | 33% | 1024.2 hPa | 0 mm | - | 1041 W/m² | - |
| 1777829350 | 17.78° C | 33% | 1024.2 hPa | 0 mm | - | 1041 W/m² | - |
| 1777829329 | 17.22° C | 35% | 1024.2 hPa | 0 mm | - | 972 W/m² | - |
| 1777829051 | 17.22° C | 35% | 1024.2 hPa | 0 mm | - | 972 W/m² | - |
| 1777828751 | 17.22° C | 35% | 1024.2 hPa | 0 mm | - | 939 W/m² | - |
| 1777828451 | 17.22° C | 39% | 1024.3 hPa | 0 mm | - | 912 W/m² | - |
* Rain latest hour (hover to see other rain measurements)
** Current wind speed in m/s (hover to see current wind gust speed)